createdAt,value
2019-05-10T00:00:16.010Z,13.68
2019-05-10T00:03:02.469Z,13.55
2019-05-10T00:05:49.573Z,13.63
2019-05-10T00:08:36.513Z,13.66
2019-05-10T00:11:07.771Z,13.60
2019-05-10T00:13:54.238Z,13.60
2019-05-10T00:16:23.684Z,13.61
2019-05-10T00:18:52.337Z,13.64
2019-05-10T00:21:20.968Z,13.58
2019-05-10T00:23:49.495Z,13.60
2019-05-10T00:26:17.956Z,13.63
2019-05-10T00:28:46.446Z,13.65
2019-05-10T00:31:14.909Z,13.62
2019-05-10T00:33:43.418Z,13.69
2019-05-10T00:36:11.877Z,13.67
2019-05-10T00:38:40.369Z,13.63
2019-05-10T00:41:08.836Z,13.66
2019-05-10T00:43:37.302Z,13.67
2019-05-10T00:46:05.886Z,13.61
2019-05-10T00:48:34.353Z,13.67
2019-05-10T00:51:02.852Z,13.68
2019-05-10T00:53:31.329Z,13.67
2019-05-10T00:55:59.845Z,13.67
2019-05-10T00:58:28.307Z,13.63
2019-05-10T01:00:56.803Z,13.60
2019-05-10T01:03:25.304Z,13.56
2019-05-10T01:05:53.969Z,13.55
2019-05-10T01:08:22.441Z,13.63
2019-05-10T01:10:50.944Z,13.62
2019-05-10T01:13:19.388Z,13.57
2019-05-10T01:15:47.886Z,13.64
2019-05-10T01:18:16.441Z,13.57
2019-05-10T01:20:44.936Z,13.57
2019-05-10T01:23:13.430Z,13.53
2019-05-10T01:25:41.914Z,13.62
2019-05-10T01:28:10.381Z,13.60
2019-05-10T01:30:38.862Z,13.61
2019-05-10T01:33:07.329Z,13.58
2019-05-10T01:35:35.816Z,13.56
2019-05-10T01:38:04.308Z,13.60
2019-05-10T01:40:32.863Z,13.58
2019-05-10T01:43:01.318Z,13.56
2019-05-10T01:45:29.813Z,13.60
2019-05-10T01:47:58.278Z,13.50
2019-05-10T01:50:26.755Z,13.54
2019-05-10T01:52:55.222Z,13.53
2019-05-10T01:55:23.714Z,13.60
2019-05-10T01:57:52.182Z,13.61
2019-05-10T02:00:21.121Z,13.52
2019-05-10T02:02:49.599Z,13.57
2019-05-10T02:05:18.627Z,13.61
2019-05-10T02:07:47.105Z,13.63
2019-05-10T02:10:16.325Z,13.65
2019-05-10T02:12:44.820Z,13.59
2019-05-10T02:15:13.610Z,13.61
2019-05-10T02:17:42.103Z,13.58
2019-05-10T02:20:10.850Z,13.56
2019-05-10T02:22:39.371Z,13.52
2019-05-10T02:25:07.983Z,13.54
2019-05-10T02:27:36.502Z,13.57
2019-05-10T02:30:06.501Z,13.51
2019-05-10T02:32:35.063Z,13.49
2019-05-10T02:35:04.607Z,13.52
2019-05-10T02:37:33.180Z,13.58
2019-05-10T02:40:01.663Z,13.51
2019-05-10T02:42:30.240Z,13.38
2019-05-10T02:44:58.723Z,13.40
2019-05-10T02:47:27.335Z,13.37
2019-05-10T02:49:58.986Z,13.45
2019-05-10T02:52:26.113Z,13.36
2019-05-10T02:54:54.957Z,13.25
2019-05-10T02:57:23.789Z,13.25
2019-05-10T02:59:53.383Z,13.25
2019-05-10T03:02:22.611Z,13.19
2019-05-10T03:04:53.900Z,12.90
2019-05-10T03:07:25.454Z,13.02
2019-05-10T03:10:10.943Z,13.14
2019-05-10T03:12:42.684Z,12.92
2019-05-10T03:15:12.619Z,13.05
2019-05-10T03:17:41.929Z,13.16
2019-05-10T03:20:12.706Z,13.12
2019-05-10T03:22:44.601Z,12.97
2019-05-10T03:25:13.695Z,12.93
2019-05-10T03:27:42.710Z,13.07
2019-05-10T03:30:12.014Z,13.02
2019-05-10T03:32:40.514Z,13.07
2019-05-10T03:35:09.657Z,13.15
2019-05-10T03:37:38.649Z,13.17
2019-05-10T03:40:09.146Z,13.20
2019-05-10T03:42:37.889Z,13.14
2019-05-10T03:45:08.093Z,13.14
2019-05-10T03:47:36.610Z,13.09
2019-05-10T03:50:08.673Z,13.03
2019-05-10T03:52:37.189Z,13.18
2019-05-10T03:55:07.080Z,13.13
2019-05-10T03:57:35.564Z,12.94
2019-05-10T04:00:12.036Z,13.01
2019-05-10T04:02:40.535Z,13.04
2019-05-10T04:05:09.236Z,12.99
2019-05-10T04:07:37.738Z,13.08
2019-05-10T04:10:07.754Z,13.14
2019-05-10T04:12:36.321Z,13.16
2019-05-10T04:15:07.398Z,13.01
2019-05-10T04:17:36.019Z,13.07
2019-05-10T04:20:07.491Z,13.01
2019-05-10T04:22:36.046Z,12.97
2019-05-10T04:25:05.355Z,13.12
2019-05-10T04:27:33.887Z,13.18
2019-05-10T04:30:02.365Z,13.16
2019-05-10T04:32:30.862Z,13.13
2019-05-10T04:34:59.353Z,13.19
2019-05-10T04:37:38.436Z,13.07
2019-05-10T04:40:07.350Z,13.23
2019-05-10T04:42:35.971Z,13.27
2019-05-10T04:45:05.643Z,13.31
2019-05-10T04:47:34.104Z,13.26
2019-05-10T04:50:02.586Z,13.30
2019-05-10T04:52:31.054Z,13.31
2019-05-10T04:54:59.557Z,13.28
2019-05-10T04:57:28.033Z,13.30
2019-05-10T04:59:56.517Z,13.29
2019-05-10T05:02:24.982Z,13.38
2019-05-10T05:04:53.503Z,13.32
2019-05-10T05:07:21.970Z,13.37
2019-05-10T05:09:50.492Z,13.33
2019-05-10T05:12:18.985Z,13.46
2019-05-10T05:14:47.654Z,13.48
2019-05-10T05:17:16.185Z,13.48
2019-05-10T05:19:44.700Z,13.56
2019-05-10T05:22:13.306Z,13.54
2019-05-10T05:24:41.805Z,13.55
2019-05-10T05:27:10.284Z,13.52
2019-05-10T05:29:38.826Z,13.62
2019-05-10T05:32:07.292Z,13.70
2019-05-10T05:34:35.772Z,13.70
2019-05-10T05:37:04.418Z,13.79
2019-05-10T05:39:32.900Z,13.88
2019-05-10T05:42:01.368Z,14.03
2019-05-10T05:44:29.929Z,14.13
2019-05-10T05:46:58.402Z,14.30
2019-05-10T05:49:26.899Z,14.35
2019-05-10T05:51:55.376Z,14.65
2019-05-10T05:54:23.920Z,14.93
2019-05-10T05:56:53.166Z,14.98
2019-05-10T05:59:25.955Z,14.90
2019-05-10T06:01:53.652Z,14.98
2019-05-10T06:04:22.139Z,15.12
2019-05-10T06:06:53.747Z,15.10
2019-05-10T06:09:21.004Z,15.10
2019-05-10T06:11:49.486Z,15.16
2019-05-10T06:14:17.993Z,15.20
2019-05-10T06:16:51.477Z,15.11
2019-05-10T06:19:19.869Z,15.08
2019-05-10T06:21:46.876Z,15.08
2019-05-10T06:24:15.833Z,15.12
2019-05-10T06:26:44.469Z,15.15
2019-05-10T06:29:17.535Z,15.15
2019-05-10T06:31:43.251Z,15.21
2019-05-10T06:34:11.748Z,15.31
2019-05-10T06:36:40.278Z,15.36
2019-05-10T06:39:09.055Z,15.30
2019-05-10T06:41:37.510Z,15.36
2019-05-10T06:44:06.195Z,15.27
2019-05-10T06:46:34.684Z,15.41
2019-05-10T06:49:08.456Z,15.44
2019-05-10T06:51:33.481Z,15.44
2019-05-10T06:54:01.961Z,15.42
2019-05-10T06:56:30.459Z,15.50
2019-05-10T06:59:12.222Z,15.47
2019-05-10T07:01:29.184Z,15.52
2019-05-10T07:03:57.659Z,15.63
2019-05-10T07:06:26.211Z,15.62
2019-05-10T07:08:57.830Z,15.70
2019-05-10T07:11:24.915Z,15.69
2019-05-10T07:13:53.419Z,15.76
2019-05-10T07:16:25.554Z,15.61
2019-05-10T07:18:54.742Z,15.65
2019-05-10T07:21:22.291Z,15.46
2019-05-10T07:23:50.757Z,15.59
2019-05-10T07:26:23.873Z,15.52
2019-05-10T07:28:51.779Z,15.62
2019-05-10T07:31:23.367Z,15.34
2019-05-10T07:33:49.851Z,15.52
2019-05-10T07:36:20.819Z,15.67
2019-05-10T07:38:48.643Z,15.72
2019-05-10T07:41:19.747Z,15.89
2019-05-10T07:43:48.228Z,16.78
2019-05-10T07:46:16.919Z,17.19
2019-05-10T07:48:46.957Z,17.57
2019-05-10T07:51:15.674Z,17.87
2019-05-10T07:53:44.155Z,18.18
2019-05-10T07:56:12.640Z,18.19
2019-05-10T07:58:43.169Z,18.52
2019-05-10T08:01:11.341Z,18.61
2019-05-10T08:03:44.386Z,18.81
2019-05-10T08:06:10.134Z,18.83
2019-05-10T08:08:39.225Z,18.96
2019-05-10T08:11:08.562Z,19.03
2019-05-10T08:13:39.364Z,19.42
2019-05-10T08:16:11.830Z,19.42
2019-05-10T08:18:41.990Z,19.79
2019-05-10T08:21:20.873Z,19.17
2019-05-10T08:23:38.398Z,19.40
2019-05-10T08:26:11.042Z,20.02
2019-05-10T08:28:39.817Z,19.32
2019-05-10T08:31:07.360Z,19.37
2019-05-10T08:33:36.418Z,19.29
2019-05-10T08:36:05.676Z,19.50
2019-05-10T08:38:34.250Z,20.65
2019-05-10T08:41:07.926Z,20.36
2019-05-10T08:43:38.927Z,20.71
2019-05-10T08:46:03.248Z,20.81
2019-05-10T08:48:33.069Z,20.65
2019-05-10T08:51:04.063Z,21.15
2019-05-10T08:53:32.890Z,21.43
2019-05-10T08:56:02.261Z,21.19
2019-05-10T08:58:36.967Z,20.90
2019-05-10T09:01:16.242Z,20.10
2019-05-10T09:03:32.364Z,19.93
2019-05-10T09:06:03.429Z,19.17
2019-05-10T09:08:34.612Z,19.55
2019-05-10T09:11:06.588Z,19.84
2019-05-10T09:13:37.113Z,19.84
2019-05-10T09:16:02.613Z,20.42
2019-05-10T09:18:33.125Z,20.44
2019-05-10T09:21:08.568Z,20.20
2019-05-10T09:23:32.659Z,19.94
2019-05-10T09:26:09.896Z,19.67
2019-05-10T09:28:32.205Z,19.73
2019-05-10T09:31:16.512Z,19.36
2019-05-10T09:33:31.992Z,18.81
2019-05-10T09:36:02.789Z,18.42
2019-05-10T09:38:34.764Z,18.61
2019-05-10T09:41:02.473Z,18.73
2019-05-10T09:43:31.932Z,18.55
2019-05-10T09:46:02.727Z,18.22
2019-05-10T09:48:33.082Z,18.36
2019-05-10T09:51:04.018Z,18.32
2019-05-10T09:53:31.376Z,18.22
2019-05-10T09:56:02.883Z,17.74
2019-05-10T09:58:30.069Z,17.74
2019-05-10T10:01:14.036Z,17.46
2019-05-10T10:03:30.118Z,17.32
2019-05-10T10:06:05.167Z,17.15
2019-05-10T10:08:29.603Z,17.21
2019-05-10T10:11:01.360Z,16.94
2019-05-10T10:13:39.354Z,17.02
2019-05-10T10:15:58.749Z,16.85
2019-05-10T10:18:28.369Z,16.58
2019-05-10T10:20:57.122Z,16.85
2019-05-10T10:23:30.685Z,17.53
2019-05-10T10:25:57.805Z,17.52
2019-05-10T10:28:28.381Z,17.98
2019-05-10T10:31:03.273Z,18.42
2019-05-10T10:33:29.030Z,19.73
2019-05-10T10:36:04.629Z,20.63
2019-05-10T10:38:30.945Z,20.11
2019-05-10T10:40:57.568Z,19.47
2019-05-10T10:43:27.263Z,19.04
2019-05-10T10:45:57.404Z,18.78
2019-05-10T10:48:28.270Z,18.57
2019-05-10T10:50:58.657Z,18.70
2019-05-10T10:53:28.202Z,18.27
2019-05-10T10:56:03.610Z,18.08
2019-05-10T10:58:27.530Z,18.50
2019-05-10T11:00:56.266Z,18.59
2019-05-10T11:03:30.173Z,18.29
2019-05-10T11:05:55.024Z,18.35
2019-05-10T11:08:23.529Z,18.56
2019-05-10T11:10:52.006Z,18.49
2019-05-10T11:13:40.498Z,18.46
2019-05-10T11:15:51.697Z,18.25
2019-05-10T11:18:21.584Z,18.15
2019-05-10T11:20:53.859Z,18.33
2019-05-10T11:23:24.516Z,18.50
2019-05-10T11:25:56.277Z,18.34
2019-05-10T11:28:21.087Z,18.26
2019-05-10T11:30:51.189Z,18.52
2019-05-10T11:33:29.099Z,18.39
2019-05-10T11:35:51.365Z,18.20
2019-05-10T11:38:21.434Z,18.06
2019-05-10T11:40:50.145Z,18.27
2019-05-10T11:43:23.942Z,18.11
2019-05-10T11:45:51.339Z,18.28
2019-05-10T11:48:21.454Z,18.43
2019-05-10T11:50:51.373Z,18.66
2019-05-10T11:53:20.966Z,18.77
2019-05-10T11:55:51.708Z,18.48
2019-05-10T11:58:23.517Z,18.68
2019-05-10T12:00:55.843Z,18.90
2019-05-10T12:03:23.499Z,18.76
2019-05-10T12:05:53.171Z,18.77
2019-05-10T12:08:22.329Z,18.91
2019-05-10T12:10:53.386Z,18.98
2019-05-10T12:13:24.939Z,18.87
2019-05-10T12:15:52.234Z,18.62
2019-05-10T12:21:00.268Z,18.03
2019-05-10T12:23:29.709Z,17.71
2019-05-10T12:26:31.279Z,18.45
2019-05-10T12:26:50.485Z,17.75
2019-05-10T12:28:28.496Z,17.78
2019-05-10T12:30:51.938Z,17.48
2019-05-10T12:33:24.907Z,17.74
2019-05-10T12:35:51.064Z,17.34
2019-05-10T12:38:23.560Z,16.97
2019-05-10T12:40:51.315Z,16.81
2019-05-10T12:43:21.114Z,16.91
2019-05-10T12:45:51.829Z,16.50
2019-05-10T12:48:23.138Z,16.48
2019-05-10T12:50:54.466Z,16.34
2019-05-10T12:53:21.471Z,16.35
2019-05-10T12:55:50.265Z,16.35
2019-05-10T12:58:19.625Z,16.16
2019-05-10T13:00:52.733Z,16.07
2019-05-10T13:03:19.835Z,16.30
2019-05-10T13:05:52.880Z,16.14
2019-05-10T13:08:19.589Z,16.28
2019-05-10T13:10:49.946Z,16.04
2019-05-10T13:13:23.709Z,15.94
2019-05-10T13:15:48.548Z,15.92
2019-05-10T13:18:17.029Z,15.90
2019-05-10T13:20:45.554Z,15.97
2019-05-10T13:23:16.022Z,15.93
2019-05-10T13:25:44.314Z,16.06
2019-05-10T13:28:12.800Z,15.96
2019-05-10T13:30:41.450Z,15.93
2019-05-10T13:33:09.940Z,16.00
2019-05-10T13:35:38.581Z,16.07
2019-05-10T13:38:07.118Z,16.02
2019-05-10T13:40:38.901Z,16.08
2019-05-10T13:43:05.866Z,16.20
2019-05-10T13:45:37.586Z,16.06
2019-05-10T13:48:04.641Z,16.10
2019-05-10T13:50:33.201Z,16.20
2019-05-10T13:53:01.809Z,16.33
2019-05-10T13:55:30.337Z,16.33
2019-05-10T13:57:58.845Z,16.38
2019-05-10T14:00:33.098Z,16.43
2019-05-10T14:02:57.853Z,16.57
2019-05-10T14:05:26.336Z,16.83
2019-05-10T14:07:54.858Z,16.89
2019-05-10T14:10:25.152Z,16.95
2019-05-10T14:12:56.275Z,17.17
2019-05-10T14:15:23.828Z,17.35
2019-05-10T14:17:52.355Z,17.44
2019-05-10T14:20:25.323Z,17.55
2019-05-10T14:22:55.695Z,17.55
2019-05-10T14:25:21.669Z,17.70
2019-05-10T14:27:50.168Z,17.83
2019-05-10T14:30:19.172Z,17.69
2019-05-10T14:32:47.668Z,17.82
2019-05-10T14:35:22.564Z,17.67
2019-05-10T14:37:47.984Z,17.55
2019-05-10T14:40:27.387Z,17.31
2019-05-10T14:42:47.298Z,17.52
2019-05-10T14:45:16.042Z,17.54
2019-05-10T14:47:48.292Z,17.62
2019-05-10T14:50:19.445Z,17.55
2019-05-10T14:52:45.443Z,17.66
2019-05-10T14:55:13.939Z,17.62
2019-05-10T14:57:42.443Z,17.61
2019-05-10T15:00:12.704Z,17.62
2019-05-10T15:02:41.187Z,17.36
2019-05-10T15:05:15.638Z,17.33
2019-05-10T15:07:40.150Z,17.16
2019-05-10T15:10:08.978Z,17.24
2019-05-10T15:12:37.484Z,17.23
2019-05-10T15:15:07.324Z,17.24
2019-05-10T15:17:35.900Z,17.24
2019-05-10T15:20:07.019Z,17.31
2019-05-10T15:22:35.513Z,17.25
2019-05-10T15:25:05.468Z,17.12
2019-05-10T15:27:34.156Z,17.21
2019-05-10T15:30:05.181Z,17.18
2019-05-10T15:32:32.997Z,17.15
2019-05-10T15:35:07.548Z,16.99
2019-05-10T15:37:31.717Z,16.79
2019-05-10T15:40:05.649Z,16.66
2019-05-10T15:42:36.327Z,16.60
2019-05-10T15:45:05.389Z,16.53
2019-05-10T15:47:31.254Z,16.43
2019-05-10T15:50:01.286Z,16.48
2019-05-10T15:52:30.105Z,16.48
2019-05-10T15:54:58.602Z,16.49
2019-05-10T15:57:27.095Z,16.44
2019-05-10T15:59:59.130Z,16.59
2019-05-10T16:02:25.864Z,16.59
2019-05-10T16:04:54.382Z,16.23
2019-05-10T16:07:22.908Z,16.04
2019-05-10T16:09:54.547Z,15.94
2019-05-10T16:12:21.673Z,15.93
2019-05-10T16:14:50.178Z,15.94
2019-05-10T16:17:23.530Z,15.97
2019-05-10T16:19:50.484Z,16.04
2019-05-10T16:22:19.077Z,16.02
2019-05-10T16:24:47.575Z,15.92
2019-05-10T16:27:16.040Z,15.99
2019-05-10T16:29:44.534Z,16.12
2019-05-10T16:32:13.074Z,16.02
2019-05-10T16:34:41.533Z,15.92
2019-05-10T16:37:10.005Z,15.76
2019-05-10T16:39:38.582Z,15.76
2019-05-10T16:42:07.045Z,15.80
2019-05-10T16:44:35.531Z,15.71
2019-05-10T16:47:04.014Z,15.60
2019-05-10T16:49:32.531Z,15.59
2019-05-10T16:52:01.010Z,15.57
2019-05-10T16:54:30.149Z,15.49
2019-05-10T16:56:59.759Z,15.44
2019-05-10T16:59:29.667Z,15.43
2019-05-10T17:02:04.623Z,15.39
2019-05-10T17:04:32.183Z,15.38
2019-05-10T17:06:59.493Z,15.27
2019-05-10T17:09:27.995Z,15.27
2019-05-10T17:11:59.080Z,15.22
2019-05-10T17:14:26.756Z,15.19
2019-05-10T17:16:58.877Z,15.07
2019-05-10T17:19:27.983Z,15.14
2019-05-10T17:21:55.699Z,15.04
2019-05-10T17:24:25.529Z,15.02
2019-05-10T17:26:54.168Z,14.95
2019-05-10T17:29:22.712Z,14.93
2019-05-10T17:31:51.245Z,15.00
2019-05-10T17:34:27.876Z,14.99
2019-05-10T17:36:51.694Z,14.90
2019-05-10T17:39:20.164Z,14.92
2019-05-10T17:41:48.700Z,14.85
2019-05-10T17:44:17.472Z,14.86
2019-05-10T17:46:50.303Z,14.77
2019-05-10T17:49:18.591Z,14.76
2019-05-10T17:51:47.409Z,14.75
2019-05-10T17:54:15.835Z,14.71
2019-05-10T17:56:44.320Z,14.70
2019-05-10T17:59:13.966Z,14.66
2019-05-10T18:01:42.628Z,14.65
2019-05-10T18:04:11.095Z,14.62
2019-05-10T18:06:39.578Z,14.54
2019-05-10T18:09:08.190Z,14.50
2019-05-10T18:11:42.396Z,14.55
2019-05-10T18:14:06.904Z,14.41
2019-05-10T18:16:35.385Z,14.40
2019-05-10T18:19:03.867Z,14.37
2019-05-10T18:21:32.359Z,14.30
2019-05-10T18:24:00.893Z,14.27
2019-05-10T18:26:34.238Z,14.26
2019-05-10T18:28:59.594Z,14.19
2019-05-10T18:31:28.107Z,14.20
2019-05-10T18:33:56.571Z,14.11
2019-05-10T18:36:49.934Z,14.19
2019-05-10T18:38:55.262Z,14.13
2019-05-10T18:41:23.749Z,14.04
2019-05-10T18:43:52.229Z,13.98
2019-05-10T18:46:20.713Z,14.03
2019-05-10T18:48:49.183Z,13.96
2019-05-10T18:51:23.488Z,13.97
2019-05-10T18:53:47.905Z,13.90
2019-05-10T18:56:16.411Z,13.85
2019-05-10T18:58:44.891Z,13.82
2019-05-10T19:01:13.399Z,13.81
2019-05-10T19:03:41.851Z,13.69
2019-05-10T19:06:11.336Z,13.69
2019-05-10T19:08:41.081Z,13.67
2019-05-10T19:11:10.389Z,13.72
2019-05-10T19:13:47.946Z,13.70
2019-05-10T19:16:10.984Z,13.63
2019-05-10T19:18:39.451Z,13.61
2019-05-10T19:21:07.953Z,13.64
2019-05-10T19:23:36.427Z,13.68
2019-05-10T19:26:04.938Z,13.58
2019-05-10T19:28:33.390Z,13.36
2019-05-10T19:31:01.861Z,13.29
2019-05-10T19:33:36.135Z,13.31
2019-05-10T19:36:00.541Z,13.27
2019-05-10T19:38:29.091Z,13.27
2019-05-10T19:40:57.630Z,13.33
2019-05-10T19:43:26.134Z,13.30
2019-05-10T19:45:57.486Z,13.36
2019-05-10T19:48:29.435Z,13.24
2019-05-10T19:50:55.091Z,13.29
2019-05-10T19:53:23.591Z,13.24
2019-05-10T19:55:57.305Z,13.27
2019-05-10T19:58:26.500Z,13.24
2019-05-10T20:00:52.529Z,13.21
2019-05-10T20:03:21.013Z,13.24
2019-05-10T20:05:49.514Z,13.19
2019-05-10T20:08:18.008Z,13.17
2019-05-10T20:10:46.486Z,13.21
2019-05-10T20:13:14.970Z,13.17
2019-05-10T20:15:43.436Z,13.20
2019-05-10T20:18:11.939Z,13.07
2019-05-10T20:20:40.439Z,13.14
2019-05-10T20:23:08.931Z,13.09
2019-05-10T20:25:37.382Z,13.14
2019-05-10T20:28:06.542Z,13.12
2019-05-10T20:30:35.334Z,13.12
2019-05-10T20:33:03.813Z,13.09
2019-05-10T20:35:32.289Z,13.05
2019-05-10T20:38:02.518Z,13.06
2019-05-10T20:40:30.968Z,13.03
2019-05-10T20:42:59.477Z,12.92
2019-05-10T20:45:27.945Z,12.91
2019-05-10T20:47:56.448Z,12.89
2019-05-10T20:50:24.924Z,12.91
2019-05-10T20:52:53.414Z,12.93
2019-05-10T20:55:21.960Z,12.90
2019-05-10T20:57:50.460Z,12.89
2019-05-10T21:00:19.265Z,12.77
2019-05-10T21:02:47.781Z,12.72
2019-05-10T21:05:16.266Z,12.71
2019-05-10T21:07:44.774Z,12.78
2019-05-10T21:10:13.717Z,12.84
2019-05-10T21:12:42.222Z,12.74
2019-05-10T21:15:10.796Z,12.83
2019-05-10T21:17:39.275Z,12.69
2019-05-10T21:20:08.001Z,12.68
2019-05-10T21:22:36.491Z,12.70
2019-05-10T21:25:07.249Z,12.57
2019-05-10T21:27:35.722Z,12.45
2019-05-10T21:30:05.959Z,12.47
2019-05-10T21:32:34.425Z,12.55
2019-05-10T21:35:02.923Z,12.67
2019-05-10T21:37:31.387Z,12.65
2019-05-10T21:39:59.884Z,12.57
2019-05-10T21:42:28.348Z,12.50
2019-05-10T21:44:56.844Z,12.37
2019-05-10T21:47:25.334Z,12.36
2019-05-10T21:49:53.821Z,12.28
2019-05-10T21:52:22.294Z,12.19
2019-05-10T21:54:50.797Z,12.13
2019-05-10T21:57:19.286Z,12.08
2019-05-10T21:59:54.690Z,12.08
2019-05-10T22:02:23.348Z,11.97
2019-05-10T22:04:51.833Z,11.99
2019-05-10T22:07:20.312Z,12.01
2019-05-10T22:09:48.929Z,11.95
2019-05-10T22:12:17.405Z,12.01
2019-05-10T22:14:45.891Z,12.20
2019-05-10T22:17:14.352Z,12.16
2019-05-10T22:19:42.858Z,11.95
2019-05-10T22:22:11.334Z,12.03
2019-05-10T22:24:39.841Z,12.11
2019-05-10T22:27:08.302Z,12.03
2019-05-10T22:29:36.803Z,12.05
2019-05-10T22:32:05.336Z,12.08
2019-05-10T22:34:33.854Z,12.04
2019-05-10T22:37:02.302Z,12.08
2019-05-10T22:39:30.786Z,11.92
2019-05-10T22:41:59.271Z,11.60
2019-05-10T22:44:27.776Z,11.60
2019-05-10T22:46:56.283Z,11.72
2019-05-10T22:49:24.802Z,11.80
2019-05-10T22:51:53.269Z,11.80
2019-05-10T22:54:22.151Z,11.80
2019-05-10T22:56:50.619Z,11.68
2019-05-10T22:59:19.111Z,11.61
2019-05-10T23:01:47.590Z,11.64
2019-05-10T23:04:16.169Z,11.69
2019-05-10T23:06:44.695Z,11.67
2019-05-10T23:09:23.978Z,11.61
2019-05-10T23:11:43.364Z,11.58
2019-05-10T23:14:11.939Z,11.63
2019-05-10T23:16:40.414Z,11.66
2019-05-10T23:19:08.881Z,11.66
2019-05-10T23:21:37.387Z,11.66
2019-05-10T23:24:08.668Z,11.63
2019-05-10T23:26:37.157Z,11.61
2019-05-10T23:29:05.683Z,11.61
2019-05-10T23:31:35.581Z,11.59
2019-05-10T23:34:04.297Z,11.61
2019-05-10T23:36:32.787Z,11.50
2019-05-10T23:39:01.269Z,11.51
2019-05-10T23:41:29.759Z,11.33
2019-05-10T23:43:58.228Z,11.19
2019-05-10T23:46:26.725Z,11.16
2019-05-10T23:48:55.200Z,11.25
2019-05-10T23:51:23.736Z,11.30
2019-05-10T23:53:52.463Z,11.23
2019-05-10T23:56:20.994Z,10.93
2019-05-10T23:58:49.506Z,11.14
